Time;durP1;ratioP1;P1;durP2;ratioP2;P2;SDS_P1;SDS_P2;PMS_P1;PMS_P2;Temp;Humidity;BMP_temperature;BMP_pressure;BME280_temperature;BME280_humidity;BME280_pressure;Samples;Min_cycle;Max_cycle;Signal;HPM_P1;HPM_P2
2022/09/23 00:02:15;;;;;;;4.40;4.00;;;4.90;99.90;;;;;;5083229;28;20547;-75
2022/09/23 00:04:43;;;;;;;7.53;6.17;;;4.80;99.90;;;;;;5086343;28;20554;-75
2022/09/23 00:07:10;;;;;;;7.40;4.10;;;4.80;99.90;;;;;;5082856;28;20576;-76
2022/09/23 00:09:37;;;;;;;5.80;3.80;;;4.70;99.90;;;;;;5083460;28;20598;-75
2022/09/23 00:12:04;;;;;;;4.93;4.30;;;4.70;99.90;;;;;;5085517;28;20525;-75
2022/09/23 00:14:31;;;;;;;7.13;3.77;;;4.70;99.90;;;;;;5084298;28;20470;-75
2022/09/23 00:16:58;;;;;;;7.00;5.97;;;4.80;99.90;;;;;;5082151;28;20519;-76
2022/09/23 00:19:25;;;;;;;5.53;4.67;;;4.70;99.90;;;;;;5086243;28;21037;-75
2022/09/23 00:21:55;;;;;;;4.97;4.47;;;4.70;99.90;;;;;;5083193;28;20511;-75
2022/09/23 00:24:22;;;;;;;4.40;4.10;;;4.60;99.90;;;;;;5083726;28;20461;-75
2022/09/23 00:26:49;;;;;;;5.50;4.77;;;4.70;99.90;;;;;;5084252;28;20514;-75
2022/09/23 00:29:16;;;;;;;5.43;4.20;;;4.80;99.90;;;;;;5082876;28;20455;-75
2022/09/23 00:31:44;;;;;;;5.03;4.50;;;4.90;99.90;;;;;;5085027;28;20488;-75
2022/09/23 00:34:11;;;;;;;5.90;5.10;;;4.90;99.90;;;;;;5084332;28;20469;-75
2022/09/23 00:36:39;;;;;;;4.00;3.70;;;4.80;99.90;;;;;;5083155;28;20485;-76
2022/09/23 00:39:08;;;;;;;6.00;5.50;;;4.70;99.90;;;;;;5081504;28;20483;-75
2022/09/23 00:41:36;;;;;;;8.17;6.80;;;4.70;99.90;;;;;;5085712;28;20543;-75
2022/09/23 00:44:18;;;;;;;6.13;5.63;;;4.70;99.90;;;;;;5082226;28;20461;-76
2022/09/23 00:46:45;;;;;;;6.70;4.93;;;4.60;99.90;;;;;;5080214;28;21148;-76
2022/09/23 00:49:15;;;;;;;7.03;6.20;;;4.60;99.90;;;;;;5081092;28;21151;-75
2022/09/23 00:51:48;;;;;;;5.83;5.33;;;4.60;99.90;;;;;;5081330;28;20490;-75
2022/09/23 00:54:17;;;;;;;5.50;4.97;;;4.50;99.90;;;;;;5079650;28;20952;-76
2022/09/23 00:56:44;;;;;;;5.13;4.63;;;4.50;99.90;;;;;;5083020;28;20493;-76
2022/09/23 00:59:12;;;;;;;5.63;5.13;;;4.80;99.90;;;;;;5082776;28;20459;-75
2022/09/23 01:01:39;;;;;;;4.33;3.87;;;4.90;99.90;;;;;;5086520;28;20603;-75
2022/09/23 01:04:08;;;;;;;5.87;5.20;;;4.90;99.90;;;;;;5081202;28;21184;-76
2022/09/23 01:06:35;;;;;;;6.50;5.07;;;4.90;99.90;;;;;;5082100;28;20478;-75
2022/09/23 01:09:02;;;;;;;9.67;5.30;;;4.80;99.90;;;;;;5082169;28;20538;-75
2022/09/23 01:11:40;;;;;;;5.20;4.70;;;4.70;99.90;;;;;;5082351;28;20457;-75
2022/09/23 01:14:25;;;;;;;7.10;5.27;;;4.60;99.90;;;;;;5081073;28;20523;-75
2022/09/23 01:16:58;;;;;;;5.90;5.20;;;4.60;99.90;;;;;;5083944;28;21136;-75
2022/09/23 01:19:46;;;;;;;6.43;5.77;;;4.50;99.90;;;;;;5082890;28;20462;-76
2022/09/23 01:22:22;;;;;;;5.30;4.80;;;4.40;99.90;;;;;;5080525;28;21217;-75
2022/09/23 01:25:14;;;;;;;6.30;5.77;;;4.30;99.90;;;;;;5081909;28;20591;-75
2022/09/23 01:28:07;;;;;;;12.17;5.60;;;4.40;99.90;;;;;;5081520;28;21214;-75
2022/09/23 01:30:44;;;;;;;7.80;5.70;;;4.50;99.90;;;;;;5082004;28;20579;-75
2022/09/23 01:33:17;;;;;;;7.70;6.80;;;4.60;99.90;;;;;;5079782;28;20458;-75
2022/09/23 01:35:53;;;;;;;52.87;12.40;;;4.70;99.90;;;;;;5084755;28;20544;-75
2022/09/23 01:38:31;;;;;;;42.23;13.30;;;4.80;99.90;;;;;;5082555;28;20913;-75
2022/09/23 01:41:04;;;;;;;41.40;14.43;;;4.80;99.90;;;;;;5078397;28;20512;-75
2022/09/23 01:43:40;;;;;;;67.73;13.73;;;4.80;99.90;;;;;;5081793;28;20458;-75
2022/09/23 01:46:14;;;;;;;29.57;9.23;;;4.70;99.90;;;;;;5083020;28;20470;-75
2022/09/23 01:48:49;;;;;;;35.43;10.37;;;4.80;99.90;;;;;;5081584;28;20987;-75
2022/09/23 01:51:23;;;;;;;9.50;4.67;;;4.80;99.90;;;;;;5080084;28;20544;-76
2022/09/23 01:53:57;;;;;;;49.67;12.90;;;4.80;99.90;;;;;;5083625;28;21075;-76
2022/09/23 01:56:27;;;;;;;43.43;11.43;;;4.60;99.90;;;;;;5083006;28;20513;-75
2022/09/23 01:59:01;;;;;;;5.40;5.03;;;4.50;99.90;;;;;;5081479;28;20458;-75
2022/09/23 02:01:36;;;;;;;4.57;4.23;;;4.30;99.90;;;;;;5083382;28;20485;-75
2022/09/23 02:04:07;;;;;;;4.20;3.90;;;4.30;99.90;;;;;;5081274;28;20537;-75
2022/09/23 02:06:40;;;;;;;5.40;4.90;;;4.20;99.90;;;;;;5080110;28;20487;-75
2022/09/23 02:09:11;;;;;;;5.27;4.80;;;4.10;99.90;;;;;;5078748;28;20962;-76
2022/09/23 02:11:40;;;;;;;5.80;5.20;;;4.00;99.90;;;;;;5082327;28;20486;-76
2022/09/23 02:14:16;;;;;;;5.43;4.90;;;4.10;99.90;;;;;;5082587;28;20464;-75
2022/09/23 02:16:47;;;;;;;6.70;6.00;;;4.00;99.90;;;;;;5080143;28;20486;-75
2022/09/23 02:19:20;;;;;;;29.57;9.30;;;4.10;99.90;;;;;;5077976;28;20519;-75
2022/09/23 02:21:54;;;;;;;27.50;10.37;;;4.10;99.90;;;;;;5083025;28;20895;-76
2022/09/23 02:24:26;;;;;;;8.27;4.00;;;4.20;99.90;;;;;;5080057;28;20462;-75
2022/09/23 02:26:55;;;;;;;14.30;4.57;;;4.10;99.90;;;;;;5080950;28;20656;-75
2022/09/23 02:29:29;;;;;;;7.90;4.30;;;4.10;99.90;;;;;;5081788;28;20499;-76
2022/09/23 02:32:07;;;;;;;9.17;4.70;;;4.10;99.90;;;;;;5077727;28;20499;-75
2022/09/23 02:34:42;;;;;;;24.33;6.53;;;4.10;99.90;;;;;;5083874;28;20918;-75
2022/09/23 02:37:20;;;;;;;15.93;7.23;;;4.20;99.90;;;;;;5078738;28;20490;-75
2022/09/23 02:39:57;;;;;;;24.70;7.90;;;4.30;99.90;;;;;;5081905;28;20496;-75
2022/09/23 02:42:34;;;;;;;11.50;6.20;;;4.20;99.90;;;;;;5076762;28;20514;-76
2022/09/23 02:45:01;;;;;;;22.03;5.90;;;4.30;99.90;;;;;;5080508;28;20461;-75
2022/09/23 02:47:34;;;;;;;25.40;7.23;;;4.30;99.90;;;;;;5081982;28;20512;-75
2022/09/23 02:50:01;;;;;;;18.63;7.70;;;4.30;99.90;;;;;;5077873;28;20495;-75
2022/09/23 02:52:29;;;;;;;12.73;6.00;;;4.30;99.90;;;;;;5081266;28;20465;-75
2022/09/23 02:54:56;;;;;;;30.07;9.07;;;4.50;99.90;;;;;;5083109;28;20536;-75
2022/09/23 02:57:23;;;;;;;13.33;5.67;;;4.50;99.90;;;;;;5079834;28;20573;-75
2022/09/23 02:59:51;;;;;;;20.30;7.87;;;4.50;99.90;;;;;;5080194;28;20516;-76
2022/09/23 03:02:54;;;;;;;15.10;7.37;;;4.60;99.90;;;;;;5078144;28;20512;-75
2022/09/23 03:05:26;;;;;;;54.97;10.53;;;4.70;99.90;;;;;;5078679;28;20458;-75
2022/09/23 03:08:12;;;;;;;32.10;7.13;;;4.80;99.90;;;;;;5082204;28;20490;-75
2022/09/23 03:10:51;;;;;;;6.40;4.77;;;4.90;99.90;;;;;;5080802;28;20462;-76
2022/09/23 03:13:30;;;;;;;31.17;6.80;;;4.90;99.90;;;;;;5080103;28;20947;-76
2022/09/23 03:16:04;;;;;;;11.13;6.70;;;4.90;99.90;;;;;;5080150;28;20493;-75
2022/09/23 03:18:39;;;;;;;20.53;10.83;;;5.00;99.90;;;;;;5081012;28;20522;-75
2022/09/23 03:21:09;;;;;;;30.90;7.57;;;4.90;99.90;;;;;;5081093;28;20492;-75
2022/09/23 03:23:39;;;;;;;33.70;11.47;;;5.00;99.90;;;;;;5082515;28;20520;-76
2022/09/23 03:26:11;;;;;;;46.40;11.60;;;5.00;99.90;;;;;;5078683;28;20512;-75
2022/09/23 03:28:42;;;;;;;22.03;7.40;;;5.20;99.90;;;;;;5076502;28;20475;-75
2022/09/23 03:31:10;;;;;;;14.70;6.07;;;5.00;99.90;;;;;;5081605;28;20819;-75
2022/09/23 03:33:41;;;;;;;29.57;8.60;;;5.00;99.90;;;;;;5085613;28;20583;-76
2022/09/23 03:39:02;;;;;;;46.73;9.90;;;4.80;99.90;;;;;;5084650;28;20457;-75
2022/09/23 03:41:34;;;;;;;33.53;9.57;;;4.80;99.90;;;;;;5085510;28;20486;-75
2022/09/23 03:44:03;;;;;;;22.57;5.07;;;4.90;99.90;;;;;;5086107;28;20457;-76
2022/09/23 03:46:34;;;;;;;53.53;20.53;;;4.90;99.90;;;;;;5085593;28;20494;-75
2022/09/23 03:49:08;;;;;;;35.13;9.73;;;4.90;99.90;;;;;;5083655;28;20534;-75
2022/09/23 03:51:35;;;;;;;34.07;9.50;;;4.80;99.90;;;;;;5082215;28;20489;-75
2022/09/23 03:54:03;;;;;;;24.43;8.83;;;4.80;99.90;;;;;;5084395;28;20524;-76
2022/09/23 03:56:29;;;;;;;15.87;4.33;;;4.80;99.90;;;;;;5079453;28;21004;-75
2022/09/23 03:58:56;;;;;;;18.40;5.63;;;4.80;99.90;;;;;;5084058;28;20555;-75
2022/09/23 04:01:23;;;;;;;7.53;5.10;;;4.70;99.90;;;;;;5084255;28;20516;-75
2022/09/23 04:03:52;;;;;;;8.83;5.00;;;4.60;99.90;;;;;;5086487;28;20479;-75
2022/09/23 04:06:21;;;;;;;8.80;5.63;;;4.50;99.90;;;;;;5084771;28;20478;-76
2022/09/23 04:08:48;;;;;;;14.20;7.67;;;4.40;99.90;;;;;;5084760;28;20459;-75
2022/09/23 04:11:15;;;;;;;48.80;15.77;;;4.40;99.90;;;;;;5086259;28;20461;-75
2022/09/23 04:13:42;;;;;;;27.37;9.80;;;4.30;99.90;;;;;;5086500;28;20459;-75
2022/09/23 04:16:09;;;;;;;9.80;7.30;;;4.30;99.90;;;;;;5084486;28;21178;-76
2022/09/23 04:18:36;;;;;;;20.13;8.50;;;4.20;99.90;;;;;;5087424;28;20457;-75
2022/09/23 04:21:04;;;;;;;18.70;5.70;;;4.20;99.90;;;;;;5087823;28;20454;-75
2022/09/23 04:23:32;;;;;;;40.50;7.60;;;4.30;99.90;;;;;;5091761;28;20510;-75
2022/09/23 04:25:59;;;;;;;22.87;9.00;;;4.20;99.90;;;;;;5087226;28;20521;-75
2022/09/23 04:28:26;;;;;;;62.73;10.90;;;4.10;99.90;;;;;;5079949;28;20495;-75
2022/09/23 04:30:53;;;;;;;51.07;16.37;;;4.10;99.90;;;;;;5085045;28;20460;-75
2022/09/23 04:33:20;;;;;;;39.80;10.77;;;4.10;99.90;;;;;;5077987;28;20470;-75
2022/09/23 04:35:50;;;;;;;20.33;5.97;;;4.10;99.90;;;;;;5079213;28;20922;-75
2022/09/23 04:38:18;;;;;;;36.30;5.47;;;4.10;99.90;;;;;;5083691;28;20443;-74
2022/09/23 04:40:46;;;;;;;61.07;12.80;;;4.10;99.90;;;;;;5083152;28;20515;-75
2022/09/23 04:43:14;;;;;;;32.67;6.93;;;4.10;99.90;;;;;;5078974;28;20517;-75
2022/09/23 04:45:42;;;;;;;46.13;10.07;;;4.10;99.90;;;;;;5083481;28;20861;-75
2022/09/23 04:48:09;;;;;;;108.10;18.00;;;4.10;99.90;;;;;;5074859;28;21991;-75
2022/09/23 04:50:37;;;;;;;75.00;17.60;;;4.10;99.90;;;;;;5075787;28;20489;-75
2022/09/23 04:53:05;;;;;;;109.37;20.30;;;4.30;99.90;;;;;;5083522;28;20450;-75
2022/09/23 04:55:32;;;;;;;117.13;16.23;;;4.30;99.90;;;;;;5079534;28;20540;-75
2022/09/23 04:58:01;;;;;;;77.00;16.43;;;4.40;99.90;;;;;;5074991;28;21210;-75
2022/09/23 05:00:28;;;;;;;59.43;10.50;;;4.40;99.90;;;;;;5079653;28;20494;-75
2022/09/23 05:02:54;;;;;;;46.00;11.80;;;4.50;99.90;;;;;;5082626;28;20566;-75
2022/09/23 05:05:23;;;;;;;66.03;12.27;;;4.50;99.90;;;;;;5084823;28;20540;-75
2022/09/23 05:07:50;;;;;;;46.70;10.37;;;4.60;99.90;;;;;;5072092;28;20463;-76
2022/09/23 05:10:18;;;;;;;70.13;14.57;;;4.60;99.90;;;;;;5082740;28;20458;-76
2022/09/23 05:12:45;;;;;;;30.67;6.17;;;4.50;99.90;;;;;;5082271;28;20901;-75
2022/09/23 05:15:14;;;;;;;61.57;12.67;;;4.40;99.90;;;;;;5080764;28;20462;-75
2022/09/23 05:17:41;;;;;;;103.13;23.47;;;4.30;99.90;;;;;;5084042;28;20956;-75
2022/09/23 05:20:09;;;;;;;40.40;9.90;;;4.30;99.90;;;;;;5077211;28;20490;-76
2022/09/23 05:22:36;;;;;;;56.23;10.00;;;4.40;99.90;;;;;;5081054;28;20518;-76
2022/09/23 05:25:03;;;;;;;16.20;5.50;;;4.50;99.90;;;;;;5075916;28;20551;-77
2022/09/23 05:27:30;;;;;;;46.30;9.23;;;4.60;99.90;;;;;;5082527;28;20483;-77
2022/09/23 05:29:57;;;;;;;79.07;14.70;;;4.60;99.90;;;;;;5076943;28;20467;-78
2022/09/23 05:32:26;;;;;;;49.40;9.37;;;4.80;99.90;;;;;;5080038;28;20494;-76
2022/09/23 05:34:54;;;;;;;124.60;21.80;;;4.60;99.90;;;;;;5081777;28;20524;-76
2022/09/23 05:37:21;;;;;;;50.03;8.27;;;4.70;99.90;;;;;;5080814;28;20781;-77
2022/09/23 05:39:48;;;;;;;148.43;23.17;;;4.60;99.90;;;;;;5081925;28;20465;-76
2022/09/23 05:42:17;;;;;;;145.67;29.77;;;4.60;99.90;;;;;;5079557;28;20910;-76
2022/09/23 05:44:45;;;;;;;68.43;15.67;;;4.60;99.90;;;;;;5079780;28;20537;-76
2022/09/23 05:47:13;;;;;;;58.00;11.20;;;4.60;99.90;;;;;;5078615;28;20463;-77
2022/09/23 05:49:42;;;;;;;99.00;19.73;;;4.80;99.90;;;;;;5074628;28;20759;-76
2022/09/23 05:52:09;;;;;;;110.77;20.93;;;4.80;99.90;;;;;;5069376;28;21201;-76
2022/09/23 05:54:36;;;;;;;89.93;16.30;;;4.80;99.90;;;;;;5071144;28;21142;-76
2022/09/23 05:57:04;;;;;;;100.37;17.83;;;4.90;99.90;;;;;;5076225;28;20465;-76
2022/09/23 05:59:31;;;;;;;84.63;12.10;;;5.00;99.90;;;;;;5076925;28;20455;-76
2022/09/23 06:01:59;;;;;;;59.37;10.80;;;4.90;99.90;;;;;;5079230;28;20483;-76
2022/09/23 06:04:26;;;;;;;50.83;10.37;;;5.00;99.90;;;;;;5081976;28;20474;-76
2022/09/23 06:06:54;;;;;;;74.80;13.73;;;5.10;99.90;;;;;;5078096;28;20469;-76
2022/09/23 06:09:21;;;;;;;26.23;7.03;;;5.10;99.90;;;;;;5077360;28;20454;-77
2022/09/23 06:11:49;;;;;;;84.27;14.87;;;5.00;99.90;;;;;;5077143;28;20967;-77
2022/09/23 06:14:16;;;;;;;108.00;14.93;;;5.00;99.90;;;;;;5081348;28;20443;-76
2022/09/23 06:16:43;;;;;;;205.50;30.20;;;5.10;99.90;;;;;;5083690;28;20535;-77
2022/09/23 06:19:10;;;;;;;136.07;25.37;;;5.30;99.90;;;;;;5079181;28;20465;-76
2022/09/23 06:21:39;;;;;;;21.87;7.77;;;5.60;99.90;;;;;;5081604;28;21182;-77
2022/09/23 06:24:09;;;;;;;59.03;12.73;;;5.60;99.90;;;;;;5083539;28;20453;-77
2022/09/23 06:26:37;;;;;;;46.37;10.60;;;5.90;99.90;;;;;;5082939;28;20679;-77
2022/09/23 06:29:08;;;;;;;150.23;18.30;;;5.70;99.90;;;;;;5078413;28;20499;-76
2022/09/23 06:31:36;;;;;;;81.13;15.13;;;5.60;99.90;;;;;;5081752;28;20589;-77
2022/09/23 06:34:03;;;;;;;136.27;22.00;;;5.80;99.90;;;;;;5080515;28;20473;-77
2022/09/23 06:36:30;;;;;;;73.97;17.00;;;5.80;99.90;;;;;;5077415;28;20541;-77
2022/09/23 06:38:57;;;;;;;25.93;9.77;;;5.80;99.90;;;;;;5078246;28;20453;-77
2022/09/23 06:41:25;;;;;;;111.63;20.90;;;5.90;99.90;;;;;;5080917;28;20543;-77
2022/09/23 06:43:52;;;;;;;161.70;29.10;;;6.00;99.90;;;;;;5083851;28;20529;-77
2022/09/23 06:46:19;;;;;;;102.43;19.57;;;6.00;99.90;;;;;;5082809;28;20531;-77
2022/09/23 06:48:47;;;;;;;246.30;39.80;;;6.10;99.90;;;;;;5082224;28;20466;-77
2022/09/23 06:51:18;;;;;;;37.97;8.80;;;6.30;99.90;;;;;;5081385;28;20455;-77
2022/09/23 06:53:48;;;;;;;36.67;9.20;;;6.60;99.90;;;;;;5077290;28;20454;-77
2022/09/23 06:56:18;;;;;;;29.53;7.50;;;6.60;99.90;;;;;;5080546;28;20544;-76
2022/09/23 06:58:47;;;;;;;34.83;6.77;;;6.30;99.90;;;;;;5082992;28;20484;-76
2022/09/23 07:01:16;;;;;;;24.40;7.70;;;6.50;99.90;;;;;;5078758;28;20492;-77
2022/09/23 07:03:44;;;;;;;22.03;5.47;;;6.90;99.90;;;;;;5081551;28;20486;-76
2022/09/23 07:06:12;;;;;;;7.50;5.40;;;6.90;99.90;;;;;;5077842;28;20922;-77
2022/09/23 07:08:41;;;;;;;18.83;7.23;;;7.10;99.90;;;;;;5081615;28;20833;-77
2022/09/23 07:11:12;;;;;;;20.63;5.00;;;6.90;99.90;;;;;;5079127;28;20890;-77
2022/09/23 07:13:39;;;;;;;6.90;3.20;;;7.10;99.90;;;;;;5081071;28;20455;-77
2022/09/23 07:16:09;;;;;;;9.53;3.70;;;7.00;99.90;;;;;;5063919;28;20579;-77
2022/09/23 07:18:36;;;;;;;3.13;2.93;;;7.10;99.90;;;;;;5045224;28;20460;-77
2022/09/23 07:21:08;;;;;;;8.40;3.23;;;7.10;99.90;;;;;;5053644;28;20819;-77
2022/09/23 07:23:36;;;;;;;2.90;2.30;;;6.80;99.90;;;;;;5055142;28;20596;-77
2022/09/23 07:26:04;;;;;;;3.10;2.63;;;7.10;99.90;;;;;;5057528;28;20589;-77
2022/09/23 07:28:32;;;;;;;4.77;3.00;;;7.30;99.90;;;;;;5058300;28;21355;-77
2022/09/23 07:31:06;;;;;;;3.33;3.13;;;7.40;99.90;;;;;;5059643;28;20912;-77
2022/09/23 07:33:35;;;;;;;3.13;2.93;;;7.70;99.90;;;;;;5058976;28;20870;-77
2022/09/23 07:36:07;;;;;;;4.53;4.20;;;8.20;99.90;;;;;;5060749;28;21030;-77
2022/09/23 07:38:34;;;;;;;4.17;3.77;;;8.40;99.90;;;;;;5060666;28;21009;-76
2022/09/23 07:41:02;;;;;;;4.10;3.80;;;8.20;99.90;;;;;;5064619;28;20629;-76
2022/09/23 07:43:30;;;;;;;2.73;2.53;;;8.20;99.90;;;;;;5057747;28;20487;-76
2022/09/23 07:45:58;;;;;;;3.27;2.97;;;8.20;99.90;;;;;;5070740;28;20490;-77
2022/09/23 07:48:25;;;;;;;2.60;2.40;;;8.50;99.90;;;;;;5051797;28;20464;-77
2022/09/23 07:50:53;;;;;;;6.60;3.63;;;8.30;99.90;;;;;;5056067;28;20543;-77
2022/09/23 07:53:20;;;;;;;1.93;1.73;;;8.60;99.90;;;;;;5053700;28;20480;-77
2022/09/23 07:55:52;;;;;;;2.70;2.50;;;8.60;99.90;;;;;;5052060;28;20541;-76
2022/09/23 07:58:19;;;;;;;3.57;2.30;;;8.80;99.90;;;;;;5054414;28;21022;-76
2022/09/23 08:00:47;;;;;;;3.50;2.90;;;9.30;99.90;;;;;;5059855;28;20919;-75
2022/09/23 08:03:14;;;;;;;3.63;3.30;;;9.30;99.90;;;;;;5053382;28;20484;-76
2022/09/23 08:05:41;;;;;;;1.73;1.63;;;8.90;99.90;;;;;;5048806;28;20482;-76
2022/09/23 08:08:10;;;;;;;2.50;2.30;;;9.10;99.90;;;;;;5051478;28;20937;-75
2022/09/23 08:10:36;;;;;;;2.30;2.20;;;9.30;99.90;;;;;;5055161;28;20455;-76
2022/09/23 08:13:03;;;;;;;3.20;2.37;;;8.70;99.90;;;;;;5053629;28;20452;-77
2022/09/23 08:15:31;;;;;;;2.73;2.47;;;8.60;99.90;;;;;;5050311;28;20798;-76
2022/09/23 08:18:00;;;;;;;2.90;2.70;;;8.20;99.90;;;;;;5053446;28;20496;-77
2022/09/23 08:20:46;;;;;;;2.47;2.33;;;8.40;99.90;;;;;;5055224;28;20539;-76
2022/09/23 08:23:16;;;;;;;2.57;2.37;;;8.30;99.90;;;;;;5050956;28;20516;-76
2022/09/23 08:25:46;;;;;;;3.77;3.20;;;8.40;99.90;;;;;;5060090;28;20482;-76
2022/09/23 08:28:14;;;;;;;2.10;1.90;;;8.60;99.90;;;;;;5056472;28;20467;-77
2022/09/23 08:30:42;;;;;;;1.87;1.77;;;8.70;99.90;;;;;;5064906;28;20462;-76
2022/09/23 08:33:09;;;;;;;1.67;1.57;;;8.80;99.90;;;;;;5065294;28;20493;-76
2022/09/23 08:35:36;;;;;;;1.80;1.63;;;8.90;99.90;;;;;;5062321;28;20958;-76
2022/09/23 08:38:03;;;;;;;2.30;1.97;;;8.80;99.90;;;;;;5061512;28;20841;-77
2022/09/23 08:40:34;;;;;;;2.30;2.10;;;8.70;99.90;;;;;;5047504;28;20491;-77
2022/09/23 08:43:01;;;;;;;2.30;2.20;;;9.00;99.90;;;;;;5052207;28;20479;-76
2022/09/23 08:45:29;;;;;;;1.87;1.77;;;8.80;99.90;;;;;;5055121;28;20557;-77
2022/09/23 08:48:00;;;;;;;1.63;1.53;;;9.00;99.90;;;;;;5063778;28;20470;-76
2022/09/23 08:50:33;;;;;;;3.03;1.93;;;8.90;99.90;;;;;;5050213;28;20464;-76
2022/09/23 08:53:03;;;;;;;1.77;1.67;;;9.40;99.90;;;;;;5051916;28;20526;-76
2022/09/23 08:55:37;;;;;;;2.80;2.60;;;9.40;99.90;;;;;;5048751;28;20546;-77
2022/09/23 08:58:29;;;;;;;1.97;1.87;;;9.50;99.90;;;;;;5058985;28;20608;-76
2022/09/23 09:01:10;;;;;;;2.27;2.17;;;9.60;99.90;;;;;;5060993;28;20513;-77
2022/09/23 09:03:44;;;;;;;1.80;1.70;;;10.10;99.90;;;;;;5052717;28;20564;-77
2022/09/23 09:06:17;;;;;;;2.47;1.50;;;10.00;99.90;;;;;;5063782;28;20482;-77
2022/09/23 09:08:46;;;;;;;2.00;1.47;;;10.00;99.90;;;;;;5058916;28;20983;-76
2022/09/23 09:11:16;;;;;;;1.97;1.83;;;10.00;99.90;;;;;;5063241;28;20490;-76
2022/09/23 09:13:51;;;;;;;2.80;1.80;;;10.20;99.90;;;;;;5060850;28;20463;-77
2022/09/23 09:16:38;;;;;;;1.90;1.80;;;10.20;99.90;;;;;;5063660;28;20871;-76
2022/09/23 09:19:15;;;;;;;2.47;2.23;;;10.60;99.90;;;;;;5063416;28;21125;-78
2022/09/23 09:21:46;;;;;;;2.10;2.00;;;10.90;99.90;;;;;;5051986;28;20472;-77
2022/09/23 09:24:19;;;;;;;1.90;1.50;;;10.90;99.90;;;;;;5052349;28;20487;-77
2022/09/23 09:26:47;;;;;;;1.80;1.70;;;10.90;99.90;;;;;;5064556;28;20491;-77
2022/09/23 09:29:20;;;;;;;1.70;1.60;;;11.20;99.90;;;;;;5065125;28;20448;-77
2022/09/23 09:31:48;;;;;;;2.17;1.70;;;11.50;99.90;;;;;;5059214;28;20463;-77
2022/09/23 09:34:26;;;;;;;1.87;1.77;;;11.80;99.90;;;;;;5066429;28;20444;-77
2022/09/23 09:37:05;;;;;;;2.30;1.60;;;11.80;99.90;;;;;;5064568;28;20491;-76
2022/09/23 09:39:33;;;;;;;1.53;1.43;;;11.60;99.90;;;;;;5063083;28;20456;-77
2022/09/23 09:42:03;;;;;;;1.40;1.30;;;11.70;99.90;;;;;;5064471;28;20466;-77
2022/09/23 09:44:35;;;;;;;2.20;1.90;;;11.50;99.90;;;;;;5063138;28;20476;-77
2022/09/23 09:47:17;;;;;;;2.53;1.60;;;11.70;99.90;;;;;;5055622;28;21026;-77
2022/09/23 09:49:51;;;;;;;1.87;1.77;;;11.70;99.90;;;;;;5058475;28;20575;-77
2022/09/23 09:52:24;;;;;;;2.57;2.47;;;11.80;99.90;;;;;;5063476;28;20552;-77
2022/09/23 09:54:55;;;;;;;2.40;1.53;;;12.20;99.90;;;;;;5051482;28;20455;-77
2022/09/23 09:57:30;;;;;;;2.70;1.70;;;12.50;99.90;;;;;;5055748;28;20461;-77
2022/09/23 09:59:58;;;;;;;1.90;1.80;;;12.70;99.90;;;;;;5060868;28;20461;-76
2022/09/23 10:02:29;;;;;;;1.53;1.43;;;12.50;99.90;;;;;;5063007;28;20480;-77
2022/09/23 10:05:02;;;;;;;1.93;1.83;;;12.30;99.90;;;;;;5062100;28;20490;-77
2022/09/23 10:07:30;;;;;;;1.83;1.73;;;12.50;99.90;;;;;;5063619;28;20487;-77
2022/09/23 10:10:00;;;;;;;1.20;1.10;;;12.70;99.90;;;;;;5064363;28;20474;-77
2022/09/23 10:12:42;;;;;;;1.40;1.30;;;12.60;99.90;;;;;;5061955;28;20448;-77
2022/09/23 10:15:29;;;;;;;1.43;1.33;;;13.00;99.90;;;;;;5052657;28;20494;-77
2022/09/23 10:18:00;;;;;;;2.23;2.03;;;13.10;99.90;;;;;;5060984;28;20526;-77
2022/09/23 10:20:35;;;;;;;4.27;1.40;;;13.00;99.90;;;;;;5063044;28;20534;-77
2022/09/23 10:23:08;;;;;;;2.60;1.37;;;13.10;99.90;;;;;;5065303;28;20455;-76
2022/09/23 10:25:36;;;;;;;4.93;2.03;;;13.30;99.90;;;;;;5060755;28;20985;-77
2022/09/23 10:28:33;;;;;;;1.50;1.40;;;13.30;99.90;;;;;;5061468;28;20478;-77
2022/09/23 10:31:08;;;;;;;1.20;1.10;;;13.70;99.90;;;;;;5058224;28;21041;-77
2022/09/23 10:33:41;;;;;;;2.50;2.30;;;14.00;99.90;;;;;;5053982;28;20457;-77
2022/09/23 10:36:10;;;;;;;1.67;1.57;;;14.10;99.90;;;;;;5061386;28;20939;-77
2022/09/23 10:38:37;;;;;;;1.53;1.43;;;14.10;99.90;;;;;;5063106;28;20459;-77
2022/09/23 10:47:05;;;;;;;0.63;0.60;;;14.20;99.90;;;;;;5055941;28;20450;-77
2022/09/23 10:49:52;;;;;;;0.70;0.70;;;14.30;99.90;;;;;;5063018;28;20457;-76
2022/09/23 10:52:45;;;;;;;1.43;1.27;;;14.60;99.90;;;;;;5059408;28;20903;-76
2022/09/23 10:55:36;;;;;;;0.97;0.80;;;14.70;99.90;;;;;;5048339;28;20458;-76
2022/09/23 10:58:18;;;;;;;1.23;0.80;;;14.70;99.70;;;;;;5053946;28;21226;-77
2022/09/23 11:00:57;;;;;;;0.83;0.83;;;14.90;98.60;;;;;;5059358;28;20456;-76
2022/09/23 11:03:58;;;;;;;0.50;0.50;;;14.90;99.90;;;;;;5051301;28;20577;-78
2022/09/23 11:06:34;;;;;;;0.60;0.50;;;15.10;95.90;;;;;;5068731;28;20430;-76
2022/09/23 11:09:24;;;;;;;0.80;0.60;;;15.20;96.60;;;;;;5084111;28;20941;-77
2022/09/23 11:12:07;;;;;;;0.60;0.53;;;15.30;97.90;;;;;;5048721;28;20552;-77
2022/09/23 11:15:01;;;;;;;0.80;0.50;;;15.40;97.10;;;;;;5059309;28;20456;-77
2022/09/23 11:17:55;;;;;;;0.60;0.50;;;15.30;95.30;;;;;;5054104;28;20461;-77
2022/09/23 11:20:47;;;;;;;2.40;0.60;;;15.40;96.70;;;;;;5055707;28;20450;-76
2022/09/23 11:23:39;;;;;;;0.70;0.60;;;15.50;94.20;;;;;;5059791;28;20477;-77
2022/09/23 11:26:21;;;;;;;0.70;0.70;;;15.50;95.40;;;;;;5057619;28;21032;-76
2022/09/23 11:29:11;;;;;;;0.80;0.80;;;15.70;95.40;;;;;;5063630;28;20449;-77
2022/09/23 11:31:46;;;;;;;2.10;0.57;;;15.90;96.20;;;;;;5055821;28;20548;-76
2022/09/23 11:34:46;;;;;;;1.63;0.80;;;16.20;96.60;;;;;;5069898;28;20455;-77
2022/09/23 11:37:18;;;;;;;0.70;0.70;;;16.00;94.50;;;;;;5060039;28;20462;-76
2022/09/23 11:39:49;;;;;;;1.00;0.90;;;16.20;96.00;;;;;;5062252;28;20570;-77
2022/09/23 11:42:22;;;;;;;1.17;0.70;;;16.20;95.10;;;;;;5064050;28;20523;-76
2022/09/23 11:44:56;;;;;;;0.73;0.60;;;15.90;94.30;;;;;;5060737;28;20514;-77
2022/09/23 11:47:28;;;;;;;0.80;0.80;;;16.10;95.10;;;;;;5053587;28;20542;-76
2022/09/23 11:50:02;;;;;;;1.33;0.70;;;16.10;94.80;;;;;;5062850;28;20551;-76
2022/09/23 11:52:34;;;;;;;0.80;0.80;;;16.30;95.00;;;;;;5058569;28;20463;-77
2022/09/23 11:58:02;;;;;;;0.80;0.80;;;16.30;96.10;;;;;;5059212;28;21067;-77
2022/09/23 12:00:33;;;;;;;0.90;0.90;;;16.50;96.10;;;;;;5051708;28;20520;-78
2022/09/23 12:03:09;;;;;;;0.60;0.60;;;16.30;95.90;;;;;;5067298;28;20473;-78
2022/09/23 12:05:41;;;;;;;1.20;1.10;;;16.50;96.40;;;;;;5063988;28;20521;-77
2022/09/23 12:08:16;;;;;;;0.77;0.70;;;16.70;96.00;;;;;;5058359;28;20493;-75
2022/09/23 12:10:51;;;;;;;0.80;0.70;;;17.00;96.20;;;;;;5059893;28;20478;-75
2022/09/23 12:13:26;;;;;;;0.77;0.60;;;16.90;95.30;;;;;;5059229;28;20468;-75
2022/09/23 12:16:11;;;;;;;0.60;0.60;;;17.20;94.80;;;;;;5065828;28;20439;-75
2022/09/23 12:18:56;;;;;;;0.70;0.53;;;16.90;92.70;;;;;;5060982;28;20459;-75
2022/09/23 12:21:50;;;;;;;1.20;1.10;;;16.90;94.30;;;;;;5058777;28;20459;-75
2022/09/23 12:24:31;;;;;;;0.60;0.60;;;17.10;93.10;;;;;;5061720;28;20992;-75
2022/09/23 12:27:04;;;;;;;0.87;0.80;;;17.10;94.90;;;;;;5060871;28;20556;-75
2022/09/23 12:29:32;;;;;;;0.80;0.70;;;16.90;92.40;;;;;;5060700;28;20567;-76
2022/09/23 12:32:00;;;;;;;1.50;0.93;;;17.30;93.80;;;;;;5063642;28;20487;-75
2022/09/23 12:34:38;;;;;;;0.80;0.70;;;16.80;91.80;;;;;;5064305;28;20440;-76
2022/09/23 12:37:06;;;;;;;0.80;0.70;;;16.80;93.80;;;;;;5055293;28;20579;-75
2022/09/23 12:39:37;;;;;;;1.03;1.03;;;17.10;93.40;;;;;;5065249;28;20479;-75
2022/09/23 12:42:11;;;;;;;2.37;0.83;;;17.20;94.00;;;;;;5066365;28;20460;-75
2022/09/23 12:44:40;;;;;;;3.40;0.83;;;17.40;92.50;;;;;;5062043;28;21142;-77
2022/09/23 12:47:30;;;;;;;0.90;0.90;;;17.40;93.70;;;;;;5063407;28;20468;-77
2022/09/23 12:49:59;;;;;;;1.40;0.80;;;17.60;91.60;;;;;;5057604;28;20482;-78
2022/09/23 12:52:29;;;;;;;1.07;0.97;;;17.50;92.10;;;;;;5064939;28;20444;-77
2022/09/23 12:54:58;;;;;;;2.90;0.80;;;17.30;91.30;;;;;;5068163;28;21125;-76
2022/09/23 12:57:49;;;;;;;0.83;0.70;;;17.40;91.80;;;;;;5061382;28;20852;-77
2022/09/23 13:00:24;;;;;;;1.00;0.73;;;17.50;93.60;;;;;;5045277;28;20474;-76
2022/09/23 13:08:31;;;;;;;1.23;0.83;;;17.30;90.90;;;;;;5033894;28;20937;-76
2022/09/23 13:11:00;;;;;;;1.07;0.80;;;17.30;92.70;;;;;;5065537;28;20466;-77
2022/09/23 13:13:31;;;;;;;10.47;2.90;;;17.30;91.50;;;;;;5064472;28;20536;-76
2022/09/23 13:16:12;;;;;;;1.30;1.20;;;17.30;92.70;;;;;;5059468;28;20488;-76
2022/09/23 13:18:57;;;;;;;1.33;0.80;;;17.20;92.50;;;;;;5057085;28;20487;-77
2022/09/23 13:21:59;;;;;;;0.90;0.80;;;17.10;93.10;;;;;;5059196;28;20587;-78
2022/09/23 13:24:54;;;;;;;1.43;1.27;;;17.30;92.90;;;;;;5058080;28;20479;-77
2022/09/23 13:27:25;;;;;;;0.70;0.70;;;17.40;92.90;;;;;;5040879;28;20963;-77
2022/09/23 13:29:58;;;;;;;2.97;0.80;;;17.40;92.70;;;;;;5059960;28;20459;-77
2022/09/23 13:32:30;;;;;;;1.30;1.20;;;17.60;93.40;;;;;;5062202;28;20452;-77